sensor_id;sensor_type;location;lat;lon;timestamp;temperature;humidity
19561;DHT22;9927;47.792;10.616;2024-02-23T04:01:43;5.20;99.90
19561;DHT22;9927;47.792;10.616;2024-02-23T04:04:11;5.00;99.90
19561;DHT22;9927;47.792;10.616;2024-02-23T04:06:39;4.90;99.90
19561;DHT22;9927;47.792;10.616;2024-02-23T04:09:06;4.90;99.90
19561;DHT22;9927;47.792;10.616;2024-02-23T04:11:35;4.80;99.90
19561;DHT22;9927;47.792;10.616;2024-02-23T04:14:03;4.70;99.90
19561;DHT22;9927;47.792;10.616;2024-02-23T04:16:32;4.70;99.90
19561;DHT22;9927;47.792;10.616;2024-02-23T04:18:59;4.70;99.90
19561;DHT22;9927;47.792;10.616;2024-02-23T04:21:27;4.70;99.90
19561;DHT22;9927;47.792;10.616;2024-02-23T04:23:54;4.70;99.90
19561;DHT22;9927;47.792;10.616;2024-02-23T04:26:21;4.70;99.90
19561;DHT22;9927;47.792;10.616;2024-02-23T04:28:49;4.80;99.90
19561;DHT22;9927;47.792;10.616;2024-02-23T04:31:16;4.90;99.90
19561;DHT22;9927;47.792;10.616;2024-02-23T04:33:44;4.90;99.90
19561;DHT22;9927;47.792;10.616;2024-02-23T04:36:11;4.80;99.90
19561;DHT22;9927;47.792;10.616;2024-02-23T04:38:39;4.80;99.90
19561;DHT22;9927;47.792;10.616;2024-02-23T04:41:06;4.70;99.90
19561;DHT22;9927;47.792;10.616;2024-02-23T04:43:34;4.70;99.90
19561;DHT22;9927;47.792;10.616;2024-02-23T04:46:01;4.70;99.90
19561;DHT22;9927;47.792;10.616;2024-02-23T04:48:29;4.80;99.90
19561;DHT22;9927;47.792;10.616;2024-02-23T04:50:58;4.90;99.90
19561;DHT22;9927;47.792;10.616;2024-02-23T04:53:25;4.90;99.90
19561;DHT22;9927;47.792;10.616;2024-02-23T04:55:52;4.80;99.90
19561;DHT22;9927;47.792;10.616;2024-02-23T04:58:20;4.80;99.90
19561;DHT22;9927;47.792;10.616;2024-02-23T05:00:48;4.80;99.90
19561;DHT22;9927;47.792;10.616;2024-02-23T05:03:15;4.80;99.90
19561;DHT22;9927;47.792;10.616;2024-02-23T05:05:43;4.90;99.90
19561;DHT22;9927;47.792;10.616;2024-02-23T05:08:10;4.90;99.90
19561;DHT22;9927;47.792;10.616;2024-02-23T05:10:37;4.70;99.90
19561;DHT22;9927;47.792;10.616;2024-02-23T05:13:05;4.70;99.90
19561;DHT22;9927;47.792;10.616;2024-02-23T05:15:32;4.60;99.90
19561;DHT22;9927;47.792;10.616;2024-02-23T05:17:59;4.60;99.90
19561;DHT22;9927;47.792;10.616;2024-02-23T05:20:26;4.60;99.90
19561;DHT22;9927;47.792;10.616;2024-02-23T05:22:54;4.70;99.90
19561;DHT22;9927;47.792;10.616;2024-02-23T05:25:21;4.70;99.90
19561;DHT22;9927;47.792;10.616;2024-02-23T05:27:48;4.70;99.90
19561;DHT22;9927;47.792;10.616;2024-02-23T05:30:16;4.60;99.90
19561;DHT22;9927;47.792;10.616;2024-02-23T05:32:43;4.60;99.90
19561;DHT22;9927;47.792;10.616;2024-02-23T05:35:10;4.60;99.90
19561;DHT22;9927;47.792;10.616;2024-02-23T05:37:38;4.70;99.90
19561;DHT22;9927;47.792;10.616;2024-02-23T05:40:05;4.70;99.90
19561;DHT22;9927;47.792;10.616;2024-02-23T05:42:34;4.60;99.90
19561;DHT22;9927;47.792;10.616;2024-02-23T05:45:07;4.70;99.90
19561;DHT22;9927;47.792;10.616;2024-02-23T05:47:38;4.60;99.90
19561;DHT22;9927;47.792;10.616;2024-02-23T05:50:08;4.60;99.90
19561;DHT22;9927;47.792;10.616;2024-02-23T05:52:38;4.70;99.90
19561;DHT22;9927;47.792;10.616;2024-02-23T05:55:06;4.70;99.90
19561;DHT22;9927;47.792;10.616;2024-02-23T05:57:34;4.70;99.90
19561;DHT22;9927;47.792;10.616;2024-02-23T06:00:02;4.60;99.90
19561;DHT22;9927;47.792;10.616;2024-02-23T06:02:29;4.60;99.90
19561;DHT22;9927;47.792;10.616;2024-02-23T06:04:57;4.70;99.90
19561;DHT22;9927;47.792;10.616;2024-02-23T06:07:24;4.70;99.90
19561;DHT22;9927;47.792;10.616;2024-02-23T06:09:58;4.80;99.90
19561;DHT22;9927;47.792;10.616;2024-02-23T06:12:25;4.80;99.90
19561;DHT22;9927;47.792;10.616;2024-02-23T06:14:54;4.90;99.90
19561;DHT22;9927;47.792;10.616;2024-02-23T06:17:22;4.80;99.90
19561;DHT22;9927;47.792;10.616;2024-02-23T06:19:50;4.70;99.90
19561;DHT22;9927;47.792;10.616;2024-02-23T06:22:20;4.80;99.90
19561;DHT22;9927;47.792;10.616;2024-02-23T06:24:52;5.00;99.90
19561;DHT22;9927;47.792;10.616;2024-02-23T06:27:19;4.90;99.90
19561;DHT22;9927;47.792;10.616;2024-02-23T06:29:46;4.80;99.90
19561;DHT22;9927;47.792;10.616;2024-02-23T06:32:14;4.80;99.90
19561;DHT22;9927;47.792;10.616;2024-02-23T06:34:41;4.80;99.90
19561;DHT22;9927;47.792;10.616;2024-02-23T06:37:08;4.90;99.90
19561;DHT22;9927;47.792;10.616;2024-02-23T06:39:36;4.90;99.90
19561;DHT22;9927;47.792;10.616;2024-02-23T06:42:03;4.80;99.90
19561;DHT22;9927;47.792;10.616;2024-02-23T06:44:31;4.80;99.90
19561;DHT22;9927;47.792;10.616;2024-02-23T06:46:59;4.90;99.90
19561;DHT22;9927;47.792;10.616;2024-02-23T06:49:26;5.00;99.90
19561;DHT22;9927;47.792;10.616;2024-02-23T06:51:53;5.00;99.90
19561;DHT22;9927;47.792;10.616;2024-02-23T06:54:21;5.00;99.90
19561;DHT22;9927;47.792;10.616;2024-02-23T06:56:48;4.90;99.90
19561;DHT22;9927;47.792;10.616;2024-02-23T06:59:15;4.80;99.90
19561;DHT22;9927;47.792;10.616;2024-02-23T07:01:49;4.90;99.90
19561;DHT22;9927;47.792;10.616;2024-02-23T07:04:17;4.80;99.90
19561;DHT22;9927;47.792;10.616;2024-02-23T07:06:45;5.00;99.90
19561;DHT22;9927;47.792;10.616;2024-02-23T07:09:12;5.10;99.90
19561;DHT22;9927;47.792;10.616;2024-02-23T07:11:39;5.00;99.90
19561;DHT22;9927;47.792;10.616;2024-02-23T07:14:09;4.90;99.90
19561;DHT22;9927;47.792;10.616;2024-02-23T07:16:40;5.10;99.90
19561;DHT22;9927;47.792;10.616;2024-02-23T07:19:08;5.10;99.90
19561;DHT22;9927;47.792;10.616;2024-02-23T07:21:36;5.10;99.90
19561;DHT22;9927;47.792;10.616;2024-02-23T07:24:08;5.20;99.90
19561;DHT22;9927;47.792;10.616;2024-02-23T07:26:36;5.10;99.90
19561;DHT22;9927;47.792;10.616;2024-02-23T07:29:03;5.20;99.90
19561;DHT22;9927;47.792;10.616;2024-02-23T07:31:31;5.20;99.90
19561;DHT22;9927;47.792;10.616;2024-02-23T07:33:59;5.30;99.90
19561;DHT22;9927;47.792;10.616;2024-02-23T07:36:27;5.40;99.90
19561;DHT22;9927;47.792;10.616;2024-02-23T07:38:54;5.40;99.90
19561;DHT22;9927;47.792;10.616;2024-02-23T07:41:22;5.40;99.90
19561;DHT22;9927;47.792;10.616;2024-02-23T07:43:49;5.50;99.90
19561;DHT22;9927;47.792;10.616;2024-02-23T07:46:16;5.70;99.90
19561;DHT22;9927;47.792;10.616;2024-02-23T07:48:44;5.80;99.90
19561;DHT22;9927;47.792;10.616;2024-02-23T07:51:11;5.80;99.90
19561;DHT22;9927;47.792;10.616;2024-02-23T07:53:38;5.70;99.90
19561;DHT22;9927;47.792;10.616;2024-02-23T07:56:07;5.80;99.90
19561;DHT22;9927;47.792;10.616;2024-02-23T07:58:35;5.90;99.90
19561;DHT22;9927;47.792;10.616;2024-02-23T08:01:02;6.00;99.90
19561;DHT22;9927;47.792;10.616;2024-02-23T08:03:30;6.00;99.90
19561;DHT22;9927;47.792;10.616;2024-02-23T08:05:57;6.10;99.90
19561;DHT22;9927;47.792;10.616;2024-02-23T08:08:29;6.10;99.90
19561;DHT22;9927;47.792;10.616;2024-02-23T08:11:02;5.90;99.90
19561;DHT22;9927;47.792;10.616;2024-02-23T08:13:30;5.90;99.90
19561;DHT22;9927;47.792;10.616;2024-02-23T08:15:58;5.60;99.90
19561;DHT22;9927;47.792;10.616;2024-02-23T08:18:25;5.50;99.90
19561;DHT22;9927;47.792;10.616;2024-02-23T08:20:52;5.50;99.90
19561;DHT22;9927;47.792;10.616;2024-02-23T08:23:20;5.50;99.90
19561;DHT22;9927;47.792;10.616;2024-02-23T08:25:47;5.60;99.90
19561;DHT22;9927;47.792;10.616;2024-02-23T08:28:14;5.60;99.90
19561;DHT22;9927;47.792;10.616;2024-02-23T08:30:42;5.50;99.90
19561;DHT22;9927;47.792;10.616;2024-02-23T08:33:09;5.50;99.90
19561;DHT22;9927;47.792;10.616;2024-02-23T08:35:37;5.70;99.90
19561;DHT22;9927;47.792;10.616;2024-02-23T08:38:04;5.70;99.90
19561;DHT22;9927;47.792;10.616;2024-02-23T08:40:32;5.90;99.90
19561;DHT22;9927;47.792;10.616;2024-02-23T08:43:00;5.90;99.90
19561;DHT22;9927;47.792;10.616;2024-02-23T08:45:27;6.10;99.90
19561;DHT22;9927;47.792;10.616;2024-02-23T08:47:54;5.90;99.90
19561;DHT22;9927;47.792;10.616;2024-02-23T08:50:22;6.00;99.90
19561;DHT22;9927;47.792;10.616;2024-02-23T08:52:49;6.00;99.90
19561;DHT22;9927;47.792;10.616;2024-02-23T08:55:16;6.10;99.90
19561;DHT22;9927;47.792;10.616;2024-02-23T08:57:44;6.10;99.90
19561;DHT22;9927;47.792;10.616;2024-02-23T09:00:12;6.30;99.90
19561;DHT22;9927;47.792;10.616;2024-02-23T09:02:44;6.20;99.90
19561;DHT22;9927;47.792;10.616;2024-02-23T09:05:11;6.30;99.90
19561;DHT22;9927;47.792;10.616;2024-02-23T09:07:39;6.30;99.90
19561;DHT22;9927;47.792;10.616;2024-02-23T09:10:06;6.30;99.90
19561;DHT22;9927;47.792;10.616;2024-02-23T09:12:34;6.20;99.90
19561;DHT22;9927;47.792;10.616;2024-02-23T09:15:01;6.30;99.90
19561;DHT22;9927;47.792;10.616;2024-02-23T09:17:28;6.20;99.90
19561;DHT22;9927;47.792;10.616;2024-02-23T09:19:56;6.00;99.90
19561;DHT22;9927;47.792;10.616;2024-02-23T09:22:23;6.10;99.90
19561;DHT22;9927;47.792;10.616;2024-02-23T09:24:51;6.10;99.90
19561;DHT22;9927;47.792;10.616;2024-02-23T09:27:20;6.20;99.90
19561;DHT22;9927;47.792;10.616;2024-02-23T09:29:48;6.20;99.90
19561;DHT22;9927;47.792;10.616;2024-02-23T09:32:15;6.40;99.90
19561;DHT22;9927;47.792;10.616;2024-02-23T09:34:43;6.40;99.90
19561;DHT22;9927;47.792;10.616;2024-02-23T09:37:10;6.40;99.90
19561;DHT22;9927;47.792;10.616;2024-02-23T09:39:37;6.40;99.90
19561;DHT22;9927;47.792;10.616;2024-02-23T09:42:09;6.50;99.90
19561;DHT22;9927;47.792;10.616;2024-02-23T09:44:37;6.80;99.90
19561;DHT22;9927;47.792;10.616;2024-02-23T09:47:05;6.80;99.90
19561;DHT22;9927;47.792;10.616;2024-02-23T09:49:41;6.80;99.90
19561;DHT22;9927;47.792;10.616;2024-02-23T09:52:08;6.80;99.90
19561;DHT22;9927;47.792;10.616;2024-02-23T09:54:39;6.80;99.90
19561;DHT22;9927;47.792;10.616;2024-02-23T09:57:08;6.80;99.90
19561;DHT22;9927;47.792;10.616;2024-02-23T09:59:36;6.80;99.90
19561;DHT22;9927;47.792;10.616;2024-02-23T10:02:08;6.80;99.90
19561;DHT22;9927;47.792;10.616;2024-02-23T10:04:39;6.70;99.90
19561;DHT22;9927;47.792;10.616;2024-02-23T10:07:07;6.80;99.90
19561;DHT22;9927;47.792;10.616;2024-02-23T10:09:35;6.80;99.90
19561;DHT22;9927;47.792;10.616;2024-02-23T10:12:03;7.00;99.90
19561;DHT22;9927;47.792;10.616;2024-02-23T10:14:32;7.10;99.90
19561;DHT22;9927;47.792;10.616;2024-02-23T10:16:59;7.20;99.90
19561;DHT22;9927;47.792;10.616;2024-02-23T10:19:29;7.10;99.90
19561;DHT22;9927;47.792;10.616;2024-02-23T10:21:57;6.90;99.90
19561;DHT22;9927;47.792;10.616;2024-02-23T10:24:25;6.80;99.90
19561;DHT22;9927;47.792;10.616;2024-02-23T10:26:52;7.00;99.90
19561;DHT22;9927;47.792;10.616;2024-02-23T10:29:20;7.00;99.90
19561;DHT22;9927;47.792;10.616;2024-02-23T10:31:51;6.80;99.90
19561;DHT22;9927;47.792;10.616;2024-02-23T10:34:20;6.90;99.90
19561;DHT22;9927;47.792;10.616;2024-02-23T10:36:47;6.80;99.90
19561;DHT22;9927;47.792;10.616;2024-02-23T10:39:18;6.90;99.90
19561;DHT22;9927;47.792;10.616;2024-02-23T10:42:00;6.90;99.90
19561;DHT22;9927;47.792;10.616;2024-02-23T10:44:28;6.80;99.90
19561;DHT22;9927;47.792;10.616;2024-02-23T10:46:58;6.90;99.90
19561;DHT22;9927;47.792;10.616;2024-02-23T10:49:27;6.90;99.90
19561;DHT22;9927;47.792;10.616;2024-02-23T10:51:55;6.70;99.90
19561;DHT22;9927;47.792;10.616;2024-02-23T10:54:23;6.60;99.90
19561;DHT22;9927;47.792;10.616;2024-02-23T10:56:51;6.70;99.90
19561;DHT22;9927;47.792;10.616;2024-02-23T10:59:19;6.80;99.90
19561;DHT22;9927;47.792;10.616;2024-02-23T11:01:48;6.90;99.90
19561;DHT22;9927;47.792;10.616;2024-02-23T11:04:17;7.10;99.90
19561;DHT22;9927;47.792;10.616;2024-02-23T11:06:52;6.90;99.90
19561;DHT22;9927;47.792;10.616;2024-02-23T11:09:23;6.90;99.90
19561;DHT22;9927;47.792;10.616;2024-02-23T11:11:56;6.80;99.90
19561;DHT22;9927;47.792;10.616;2024-02-23T11:14:41;7.00;99.90
19561;DHT22;9927;47.792;10.616;2024-02-23T11:17:18;6.90;99.90
19561;DHT22;9927;47.792;10.616;2024-02-23T11:19:49;6.80;99.90
19561;DHT22;9927;47.792;10.616;2024-02-23T11:22:25;6.90;99.90
19561;DHT22;9927;47.792;10.616;2024-02-23T11:25:05;7.20;99.90
19561;DHT22;9927;47.792;10.616;2024-02-23T11:27:36;7.20;99.90
19561;DHT22;9927;47.792;10.616;2024-02-23T11:30:05;7.30;99.90
19561;DHT22;9927;47.792;10.616;2024-02-23T11:32:47;7.30;99.90
19561;DHT22;9927;47.792;10.616;2024-02-23T11:35:16;7.30;99.90
19561;DHT22;9927;47.792;10.616;2024-02-23T11:37:55;7.20;99.90
19561;DHT22;9927;47.792;10.616;2024-02-23T11:40:26;7.00;99.90
19561;DHT22;9927;47.792;10.616;2024-02-23T11:42:57;6.90;99.90
19561;DHT22;9927;47.792;10.616;2024-02-23T11:45:30;6.80;99.90
19561;DHT22;9927;47.792;10.616;2024-02-23T11:47:58;6.70;99.90
19561;DHT22;9927;47.792;10.616;2024-02-23T11:50:27;6.70;99.90
19561;DHT22;9927;47.792;10.616;2024-02-23T11:52:54;6.80;99.90
19561;DHT22;9927;47.792;10.616;2024-02-23T11:55:22;7.00;99.90
19561;DHT22;9927;47.792;10.616;2024-02-23T11:57:51;7.10;99.90
19561;DHT22;9927;47.792;10.616;2024-02-23T12:00:31;7.20;99.90
19561;DHT22;9927;47.792;10.616;2024-02-23T12:02:59;7.20;99.90
19561;DHT22;9927;47.792;10.616;2024-02-23T12:05:27;7.10;99.90
19561;DHT22;9927;47.792;10.616;2024-02-23T12:07:55;6.90;99.90
19561;DHT22;9927;47.792;10.616;2024-02-23T12:10:24;6.60;99.90
19561;DHT22;9927;47.792;10.616;2024-02-23T12:12:54;6.70;99.90
19561;DHT22;9927;47.792;10.616;2024-02-23T12:15:21;6.80;99.90
19561;DHT22;9927;47.792;10.616;2024-02-23T12:17:49;7.00;99.90
19561;DHT22;9927;47.792;10.616;2024-02-23T12:20:17;7.20;99.90
19561;DHT22;9927;47.792;10.616;2024-02-23T12:22:45;7.20;99.90
19561;DHT22;9927;47.792;10.616;2024-02-23T12:25:12;7.20;99.90
19561;DHT22;9927;47.792;10.616;2024-02-23T12:27:41;7.00;99.90
19561;DHT22;9927;47.792;10.616;2024-02-23T12:30:15;7.20;99.90
19561;DHT22;9927;47.792;10.616;2024-02-23T12:32:43;7.30;99.90
19561;DHT22;9927;47.792;10.616;2024-02-23T12:35:11;7.40;99.90
19561;DHT22;9927;47.792;10.616;2024-02-23T12:37:39;7.10;99.90
19561;DHT22;9927;47.792;10.616;2024-02-23T12:40:11;7.30;99.90
19561;DHT22;9927;47.792;10.616;2024-02-23T12:42:40;7.30;99.90
19561;DHT22;9927;47.792;10.616;2024-02-23T12:45:08;7.10;99.90
19561;DHT22;9927;47.792;10.616;2024-02-23T12:47:35;6.90;99.90
19561;DHT22;9927;47.792;10.616;2024-02-23T12:50:03;7.00;99.90
19561;DHT22;9927;47.792;10.616;2024-02-23T12:52:30;7.10;99.90
19561;DHT22;9927;47.792;10.616;2024-02-23T12:54:58;7.10;99.90
19561;DHT22;9927;47.792;10.616;2024-02-23T12:57:25;7.20;99.90
19561;DHT22;9927;47.792;10.616;2024-02-23T12:59:52;7.00;99.90
19561;DHT22;9927;47.792;10.616;2024-02-23T13:02:20;7.10;99.90
19561;DHT22;9927;47.792;10.616;2024-02-23T13:04:48;7.20;99.90
19561;DHT22;9927;47.792;10.616;2024-02-23T13:07:18;7.20;99.90
19561;DHT22;9927;47.792;10.616;2024-02-23T13:09:45;7.10;99.90
19561;DHT22;9927;47.792;10.616;2024-02-23T13:12:13;7.10;99.90
19561;DHT22;9927;47.792;10.616;2024-02-23T13:14:40;7.10;99.90
19561;DHT22;9927;47.792;10.616;2024-02-23T13:17:07;7.20;99.90
19561;DHT22;9927;47.792;10.616;2024-02-23T13:19:35;7.10;99.90
19561;DHT22;9927;47.792;10.616;2024-02-23T13:22:02;7.10;99.90
19561;DHT22;9927;47.792;10.616;2024-02-23T13:24:29;7.00;99.90
19561;DHT22;9927;47.792;10.616;2024-02-23T13:26:57;7.00;99.90
19561;DHT22;9927;47.792;10.616;2024-02-23T13:29:24;7.10;99.90
19561;DHT22;9927;47.792;10.616;2024-02-23T13:31:51;7.30;99.90
19561;DHT22;9927;47.792;10.616;2024-02-23T13:34:19;7.40;99.90
19561;DHT22;9927;47.792;10.616;2024-02-23T13:36:46;7.50;99.90
19561;DHT22;9927;47.792;10.616;2024-02-23T13:39:14;7.60;99.90
19561;DHT22;9927;47.792;10.616;2024-02-23T13:41:41;7.70;99.90
19561;DHT22;9927;47.792;10.616;2024-02-23T13:44:09;7.70;99.90
19561;DHT22;9927;47.792;10.616;2024-02-23T13:46:38;7.70;99.90
19561;DHT22;9927;47.792;10.616;2024-02-23T13:49:07;7.60;99.90
19561;DHT22;9927;47.792;10.616;2024-02-23T13:51:35;7.30;99.90
19561;DHT22;9927;47.792;10.616;2024-02-23T13:54:03;7.30;99.90
19561;DHT22;9927;47.792;10.616;2024-02-23T13:56:30;7.20;99.90
19561;DHT22;9927;47.792;10.616;2024-02-23T13:58:58;7.20;99.90
19561;DHT22;9927;47.792;10.616;2024-02-23T14:01:25;7.20;99.90
19561;DHT22;9927;47.792;10.616;2024-02-23T14:03:52;7.10;99.90
19561;DHT22;9927;47.792;10.616;2024-02-23T14:06:20;7.20;99.90
19561;DHT22;9927;47.792;10.616;2024-02-23T14:08:47;7.20;99.90
19561;DHT22;9927;47.792;10.616;2024-02-23T14:11:15;7.20;99.90
19561;DHT22;9927;47.792;10.616;2024-02-23T14:13:44;7.20;99.90
19561;DHT22;9927;47.792;10.616;2024-02-23T14:16:18;7.20;99.90
19561;DHT22;9927;47.792;10.616;2024-02-23T14:18:45;7.00;99.90
19561;DHT22;9927;47.792;10.616;2024-02-23T14:21:12;6.80;99.90
19561;DHT22;9927;47.792;10.616;2024-02-23T14:23:45;6.80;99.90
19561;DHT22;9927;47.792;10.616;2024-02-23T14:26:15;6.70;99.90
19561;DHT22;9927;47.792;10.616;2024-02-23T14:28:42;6.70;99.90
19561;DHT22;9927;47.792;10.616;2024-02-23T14:31:10;6.80;99.90
19561;DHT22;9927;47.792;10.616;2024-02-23T14:33:37;6.90;99.90
19561;DHT22;9927;47.792;10.616;2024-02-23T14:36:04;7.00;99.90
19561;DHT22;9927;47.792;10.616;2024-02-23T14:38:32;7.00;99.90
19561;DHT22;9927;47.792;10.616;2024-02-23T14:40:59;7.00;99.90
19561;DHT22;9927;47.792;10.616;2024-02-23T14:43:26;6.90;99.90
19561;DHT22;9927;47.792;10.616;2024-02-23T14:45:54;7.00;99.90
19561;DHT22;9927;47.792;10.616;2024-02-23T14:48:21;6.90;99.90
19561;DHT22;9927;47.792;10.616;2024-02-23T14:50:49;6.90;99.90
19561;DHT22;9927;47.792;10.616;2024-02-23T14:53:16;6.80;99.90
19561;DHT22;9927;47.792;10.616;2024-02-23T14:55:44;6.80;99.90
19561;DHT22;9927;47.792;10.616;2024-02-23T14:58:11;6.60;99.90
19561;DHT22;9927;47.792;10.616;2024-02-23T15:00:39;6.30;99.90
19561;DHT22;9927;47.792;10.616;2024-02-23T15:03:06;6.30;99.90
19561;DHT22;9927;47.792;10.616;2024-02-23T15:05:35;6.20;99.90
19561;DHT22;9927;47.792;10.616;2024-02-23T15:08:03;6.10;99.90
19561;DHT22;9927;47.792;10.616;2024-02-23T15:10:31;5.90;99.90
19561;DHT22;9927;47.792;10.616;2024-02-23T15:12:59;5.90;99.90
19561;DHT22;9927;47.792;10.616;2024-02-23T15:15:27;6.10;99.90
19561;DHT22;9927;47.792;10.616;2024-02-23T15:17:54;6.10;99.90
19561;DHT22;9927;47.792;10.616;2024-02-23T15:20:22;6.20;99.90
19561;DHT22;9927;47.792;10.616;2024-02-23T15:22:50;6.10;99.90
19561;DHT22;9927;47.792;10.616;2024-02-23T15:25:17;6.10;99.90
19561;DHT22;9927;47.792;10.616;2024-02-23T15:27:44;6.10;99.90
19561;DHT22;9927;47.792;10.616;2024-02-23T15:32:39;6.10;99.90
19561;DHT22;9927;47.792;10.616;2024-02-23T15:35:07;6.00;99.90
19561;DHT22;9927;47.792;10.616;2024-02-23T15:37:35;6.00;99.90
19561;DHT22;9927;47.792;10.616;2024-02-23T15:40:02;6.10;99.90
19561;DHT22;9927;47.792;10.616;2024-02-23T15:42:31;6.10;99.90
19561;DHT22;9927;47.792;10.616;2024-02-23T15:44:58;6.20;99.90
19561;DHT22;9927;47.792;10.616;2024-02-23T15:47:30;6.30;99.90
19561;DHT22;9927;47.792;10.616;2024-02-23T15:49:57;6.40;99.90
19561;DHT22;9927;47.792;10.616;2024-02-23T15:52:45;6.30;99.90
19561;DHT22;9927;47.792;10.616;2024-02-23T15:55:12;6.20;99.90
19561;DHT22;9927;47.792;10.616;2024-02-23T15:57:40;6.10;99.90
19561;DHT22;9927;47.792;10.616;2024-02-23T16:00:07;6.20;99.90
19561;DHT22;9927;47.792;10.616;2024-02-23T16:02:37;6.20;99.90
19561;DHT22;9927;47.792;10.616;2024-02-23T16:05:04;5.90;99.90
19561;DHT22;9927;47.792;10.616;2024-02-23T16:07:34;5.70;99.90
19561;DHT22;9927;47.792;10.616;2024-02-23T16:10:02;5.80;99.90
19561;DHT22;9927;47.792;10.616;2024-02-23T16:12:29;5.80;99.90
19561;DHT22;9927;47.792;10.616;2024-02-23T16:14:56;5.70;99.90
19561;DHT22;9927;47.792;10.616;2024-02-23T16:17:24;5.70;99.90
19561;DHT22;9927;47.792;10.616;2024-02-23T16:19:51;5.60;99.90
19561;DHT22;9927;47.792;10.616;2024-02-23T16:22:19;5.50;99.90
19561;DHT22;9927;47.792;10.616;2024-02-23T16:24:46;5.50;99.90
19561;DHT22;9927;47.792;10.616;2024-02-23T16:27:14;5.50;99.90
19561;DHT22;9927;47.792;10.616;2024-02-23T16:29:41;5.40;99.90
19561;DHT22;9927;47.792;10.616;2024-02-23T16:32:09;5.30;99.90
19561;DHT22;9927;47.792;10.616;2024-02-23T16:34:36;5.20;99.90
19561;DHT22;9927;47.792;10.616;2024-02-23T16:37:03;5.30;99.90
19561;DHT22;9927;47.792;10.616;2024-02-23T16:39:31;5.30;99.90
19561;DHT22;9927;47.792;10.616;2024-02-23T16:41:58;5.20;99.90
19561;DHT22;9927;47.792;10.616;2024-02-23T16:44:25;5.30;99.90
19561;DHT22;9927;47.792;10.616;2024-02-23T16:46:52;5.30;99.90
19561;DHT22;9927;47.792;10.616;2024-02-23T16:49:20;5.30;99.90
19561;DHT22;9927;47.792;10.616;2024-02-23T16:51:47;5.20;99.90
19561;DHT22;9927;47.792;10.616;2024-02-23T16:54:14;5.20;99.90
19561;DHT22;9927;47.792;10.616;2024-02-23T16:56:44;5.20;99.90
19561;DHT22;9927;47.792;10.616;2024-02-23T16:59:12;5.20;99.90
19561;DHT22;9927;47.792;10.616;2024-02-23T17:01:40;5.10;99.90
19561;DHT22;9927;47.792;10.616;2024-02-23T17:04:09;5.10;99.90
19561;DHT22;9927;47.792;10.616;2024-02-23T17:06:36;5.10;99.90
19561;DHT22;9927;47.792;10.616;2024-02-23T17:09:04;5.00;99.90
19561;DHT22;9927;47.792;10.616;2024-02-23T17:11:34;5.10;99.90
19561;DHT22;9927;47.792;10.616;2024-02-23T17:14:02;5.10;99.90
19561;DHT22;9927;47.792;10.616;2024-02-23T17:16:29;5.10;99.90
19561;DHT22;9927;47.792;10.616;2024-02-23T17:18:56;4.90;99.90
19561;DHT22;9927;47.792;10.616;2024-02-23T17:21:24;4.90;99.90
19561;DHT22;9927;47.792;10.616;2024-02-23T17:23:52;4.80;99.90
19561;DHT22;9927;47.792;10.616;2024-02-23T17:26:19;4.80;99.90
19561;DHT22;9927;47.792;10.616;2024-02-23T17:28:46;4.80;99.90
19561;DHT22;9927;47.792;10.616;2024-02-23T17:31:17;4.80;99.90
19561;DHT22;9927;47.792;10.616;2024-02-23T17:33:44;4.80;99.90
19561;DHT22;9927;47.792;10.616;2024-02-23T17:36:11;4.70;99.90
19561;DHT22;9927;47.792;10.616;2024-02-23T17:38:39;4.60;99.90
19561;DHT22;9927;47.792;10.616;2024-02-23T17:41:06;4.70;99.90
19561;DHT22;9927;47.792;10.616;2024-02-23T17:43:33;4.70;99.90
19561;DHT22;9927;47.792;10.616;2024-02-23T17:46:01;4.70;99.90
19561;DHT22;9927;47.792;10.616;2024-02-23T17:48:28;4.70;99.90
19561;DHT22;9927;47.792;10.616;2024-02-23T17:50:55;4.80;99.90
19561;DHT22;9927;47.792;10.616;2024-02-23T17:53:23;4.80;99.90
19561;DHT22;9927;47.792;10.616;2024-02-23T17:55:50;4.80;99.90
19561;DHT22;9927;47.792;10.616;2024-02-23T17:58:20;4.80;99.90
19561;DHT22;9927;47.792;10.616;2024-02-23T18:00:48;4.70;99.90
19561;DHT22;9927;47.792;10.616;2024-02-23T18:03:15;4.70;99.90
19561;DHT22;9927;47.792;10.616;2024-02-23T18:05:45;4.70;99.90
19561;DHT22;9927;47.792;10.616;2024-02-23T18:08:12;4.80;99.90
19561;DHT22;9927;47.792;10.616;2024-02-23T18:10:40;4.80;99.90
19561;DHT22;9927;47.792;10.616;2024-02-23T18:13:07;4.70;99.90
19561;DHT22;9927;47.792;10.616;2024-02-23T18:15:34;4.60;99.90
19561;DHT22;9927;47.792;10.616;2024-02-23T18:18:01;4.70;99.90
19561;DHT22;9927;47.792;10.616;2024-02-23T18:20:29;4.70;99.90
19561;DHT22;9927;47.792;10.616;2024-02-23T18:22:57;4.70;99.90
19561;DHT22;9927;47.792;10.616;2024-02-23T18:25:24;4.60;99.90
19561;DHT22;9927;47.792;10.616;2024-02-23T18:30:19;4.60;99.90
19561;DHT22;9927;47.792;10.616;2024-02-23T18:32:46;4.60;99.90
19561;DHT22;9927;47.792;10.616;2024-02-23T18:35:14;4.60;99.90
19561;DHT22;9927;47.792;10.616;2024-02-23T18:37:41;4.60;99.90
19561;DHT22;9927;47.792;10.616;2024-02-23T18:40:11;4.70;99.90
19561;DHT22;9927;47.792;10.616;2024-02-23T18:42:39;4.70;99.90
19561;DHT22;9927;47.792;10.616;2024-02-23T18:45:06;4.60;99.90
19561;DHT22;9927;47.792;10.616;2024-02-23T18:47:33;4.70;99.90
19561;DHT22;9927;47.792;10.616;2024-02-23T18:50:01;4.70;99.90
19561;DHT22;9927;47.792;10.616;2024-02-23T18:52:28;4.70;99.90
19561;DHT22;9927;47.792;10.616;2024-02-23T18:54:56;4.70;99.90
19561;DHT22;9927;47.792;10.616;2024-02-23T18:57:25;4.50;99.90
19561;DHT22;9927;47.792;10.616;2024-02-23T18:59:53;4.50;99.90
19561;DHT22;9927;47.792;10.616;2024-02-23T19:02:21;4.50;99.90
19561;DHT22;9927;47.792;10.616;2024-02-23T19:04:48;4.50;99.90
19561;DHT22;9927;47.792;10.616;2024-02-23T19:07:15;4.50;99.90
19561;DHT22;9927;47.792;10.616;2024-02-23T19:09:43;4.60;99.90
19561;DHT22;9927;47.792;10.616;2024-02-23T19:12:10;4.60;99.90
19561;DHT22;9927;47.792;10.616;2024-02-23T19:14:39;4.50;99.90
19561;DHT22;9927;47.792;10.616;2024-02-23T19:17:07;4.50;99.90
19561;DHT22;9927;47.792;10.616;2024-02-23T19:19:36;4.50;99.90
19561;DHT22;9927;47.792;10.616;2024-02-23T19:22:03;4.70;99.90
19561;DHT22;9927;47.792;10.616;2024-02-23T19:24:31;4.60;99.90
19561;DHT22;9927;47.792;10.616;2024-02-23T19:26:58;4.50;99.90
19561;DHT22;9927;47.792;10.616;2024-02-23T19:29:27;4.50;99.90
19561;DHT22;9927;47.792;10.616;2024-02-23T19:31:54;4.50;99.90
19561;DHT22;9927;47.792;10.616;2024-02-23T19:34:22;4.60;99.90
19561;DHT22;9927;47.792;10.616;2024-02-23T19:36:49;4.60;99.90
19561;DHT22;9927;47.792;10.616;2024-02-23T19:39:20;4.70;99.90
19561;DHT22;9927;47.792;10.616;2024-02-23T19:41:48;4.60;99.90
19561;DHT22;9927;47.792;10.616;2024-02-23T19:44:15;4.60;99.90
19561;DHT22;9927;47.792;10.616;2024-02-23T19:46:43;4.60;99.90
19561;DHT22;9927;47.792;10.616;2024-02-23T19:49:10;4.50;99.90
19561;DHT22;9927;47.792;10.616;2024-02-23T19:51:37;4.40;99.90
19561;DHT22;9927;47.792;10.616;2024-02-23T19:54:05;4.40;99.90
19561;DHT22;9927;47.792;10.616;2024-02-23T19:56:32;4.30;99.90